Airfield :
LOGIN :

Register | Disclaimer

   EN    FR    IT 

 










Legend :    VFR   Marginal VFR   IFR   Intensive IFR   Very Intensive IFR
Visi :
Ceiling :
>= 8 km
>= 3000ft
5 to 8 km
1000 to 3000 ft
1500m to 5 km
500 to 1000 ft
800 to 1500m
200 to 500 ft
< 800m
< 200 ft
Symbols :   Thunderstorms  Fog  Heavy snow  Heavy precipitations  Wind > 20 kt
SIGMETs :     Misc.  Thunderstorms  Icing  Turbulence  Mountain Waves  Volcanic Ashes







- Airport Elevation : 37 ft


EHVL - Vlieland Heliport

CURRENT METAR :
  • 241630Z AUTO 31011KT 9999 SCT010 BKN012 BKN016 13/09 Q1016 GRN

EXPIRED METARs :
  • 241625Z AUTO 32011KT 9999 FEW010 SCT014 OVC016 13/10 Q1016 GRN
  • 241611Z AUTO 31011KT 9999 SCT013 BKN015 OVC160 13/09 Q1016 GRN
  • 241555Z AUTO 30010KT 9999 NCD 14/09 Q1016 BLU
  • 241543Z AUTO 30010KT 9999 FEW014 14/09 Q1016 BLU
  • 241530Z AUTO 32011KT 9999 SCT011 BKN014 BKN016 14/09 Q1016 GRN
  • 241525Z AUTO 32012KT 9999 FEW011 SCT016 13/09 Q1016 WHT
  • 241459Z AUTO 32012KT 9999 BKN010 BKN016 13/09 Q1016 GRN
  • 241455Z AUTO 32012KT 9999 SCT011 BKN016 BKN280 14/09 Q1016 GRN
  • 241440Z AUTO 32012KT 9999 FEW011 BKN015 13/09 Q1016 WHT
  • 241425Z AUTO 31012KT 9999 FEW010 BKN013 13/09 Q1016 GRN
  • 241356Z AUTO 30012KT 9999 SCT008 BKN010 15/10 Q1016 GRN
  • 241355Z AUTO 30011KT 9999 FEW008 15/10 Q1015 BLU

Expired Forecast.
No reported NOTAMs for that airfield.



MET'MAP, your aeronautical weather chart ! - Copyright ORBIFLY December 2007 - Disclaimer

ORBIFLY MET'MAP TEAM :

Programming & Development : Alexandra Zaïnal
Concept & Development : Baudouin d'Aumeries
Co-Development & Prog : Marc-Olivier Méhu
Technical & hardware support : Manuel Goepfert

Contact : metmap@orbifly.com




SOURCES & CREDITS :

   NOAA